Time;durP1;ratioP1;P1;durP2;ratioP2;P2;SDS_P1;SDS_P2;PMS_P1;PMS_P2;Temp;Humidity;BMP_temperature;BMP_pressure;BME280_temperature;BME280_humidity;BME280_pressure;Samples;Min_cycle;Max_cycle;Signal;HPM_P1;HPM_P2
2020/04/03 00:00:57;;;;;;;16.35;10.35;;;;;;;1.3;53.69531;94641.67;;;;
2020/04/03 00:03:08;;;;;;;16.35;10.35;;;;;;;1.3;53.69531;94641.67;;;;
2020/04/03 00:06:44;;;;;;;16.35;10.35;;;;;;;1.3;53.69531;94641.67;;;;
2020/04/03 00:09:11;;;;;;;16.35;10.35;;;;;;;1.3;53.69531;94641.67;;;;
2020/04/03 00:11:50;;;;;;;17.15;9.8;;;;;;;1.01;52.82715;94644.53;;;;
2020/04/03 00:17:01;;;;;;;18.55;12.25;;;;;;;1.04;53.66211;94645.08;;;;
2020/04/03 00:18:40;;;;;;;20.35;13.05;;;;;;;1.09;54.31055;94648.89;;;;
2020/04/03 00:19:48;;;;;;;20.35;13.05;;;;;;;1.09;54.31055;94648.89;;;;
2020/04/03 00:21:15;;;;;;;20.35;13.05;;;;;;;1.09;54.31055;94648.89;;;;
2020/04/03 00:22:45;;;;;;;20.35;13.05;;;;;;;1.09;54.31055;94648.89;;;;
2020/04/03 00:24:11;;;;;;;20.35;13.05;;;;;;;1.09;54.31055;94648.89;;;;
2020/04/03 00:25:57;;;;;;;20.35;13.05;;;;;;;1.09;54.31055;94648.89;;;;
2020/04/03 00:27:13;;;;;;;20.35;13.05;;;;;;;1.09;54.31055;94648.89;;;;
2020/04/03 00:28:46;;;;;;;17.8;10.95;;;;;;;0.84;53.37402;94652.49;;;;
2020/04/03 00:30:18;;;;;;;17.8;10.95;;;;;;;0.84;53.37402;94652.49;;;;
2020/04/03 00:34:24;;;;;;;18.55;11.7;;;;;;;0.86;53.75488;94650.84;;;;
2020/04/03 00:36:05;;;;;;;18.55;11.7;;;;;;;0.86;53.75488;94650.84;;;;
2020/04/03 00:37:42;;;;;;;18.55;11.7;;;;;;;0.86;53.75488;94650.84;;;;
2020/04/03 00:39:31;;;;;;;18.55;11.7;;;;;;;0.86;53.75488;94650.84;;;;
2020/04/03 00:40:48;;;;;;;18.55;11.7;;;;;;;0.86;53.75488;94650.84;;;;
2020/04/03 00:42:17;;;;;;;17.45;10.15;;;;;;;0.86;52.93457;94660.27;;;;
2020/04/03 00:43:44;;;;;;;17.45;10.15;;;;;;;0.86;52.93457;94660.27;;;;
2020/04/03 00:44:52;;;;;;;20.3;12.75;;;;;;;0.92;53.24805;94654.99;;;;
2020/04/03 00:45:58;;;;;;;20.3;12.75;;;;;;;0.92;53.24805;94654.99;;;;
2020/04/03 00:47:30;;;;;;;20.3;12.75;;;;;;;0.92;53.24805;94654.99;;;;
2020/04/03 00:49:04;;;;;;;20.3;12.75;;;;;;;0.92;53.24805;94654.99;;;;
2020/04/03 00:50:14;;;;;;;20.3;12.75;;;;;;;0.92;53.24805;94654.99;;;;
2020/04/03 00:51:29;;;;;;;20.3;12.75;;;;;;;0.92;53.24805;94654.99;;;;
2020/04/03 00:52:34;;;;;;;20.3;12.75;;;;;;;0.92;53.24805;94654.99;;;;
2020/04/03 00:53:39;;;;;;;20.3;12.75;;;;;;;0.92;53.24805;94654.99;;;;
2020/04/03 00:54:45;;;;;;;20.3;12.75;;;;;;;0.92;53.24805;94654.99;;;;
2020/04/03 00:55:47;;;;;;;20.3;12.75;;;;;;;0.92;53.24805;94654.99;;;;
2020/04/03 00:56:51;;;;;;;20.3;12.75;;;;;;;0.92;53.24805;94654.99;;;;
2020/04/03 00:57:57;;;;;;;18.1;11.65;;;;;;;1.24;52.87695;94662.38;;;;
2020/04/03 00:58:58;;;;;;;18.1;11.65;;;;;;;1.24;52.87695;94662.38;;;;
2020/04/03 01:00:02;;;;;;;18.1;11.65;;;;;;;1.24;52.87695;94662.38;;;;
2020/04/03 01:01:57;;;;;;;18.1;11.65;;;;;;;1.24;52.87695;94662.38;;;;
2020/04/03 01:03:33;;;;;;;18.1;11.65;;;;;;;1.24;52.87695;94662.38;;;;
2020/04/03 01:05:26;;;;;;;18.1;11.65;;;;;;;1.24;52.87695;94662.38;;;;
2020/04/03 01:06:42;;;;;;;18.1;11.65;;;;;;;1.24;52.87695;94662.38;;;;
2020/04/03 01:12:06;;;;;;;20.65;12.75;;;;;;;1.38;52.51367;94662.89;;;;
2020/04/03 01:13:34;;;;;;;20.65;12.75;;;;;;;1.38;52.51367;94662.89;;;;
2020/04/03 01:14:52;;;;;;;20.65;12.75;;;;;;;1.38;52.51367;94662.89;;;;
2020/04/03 01:16:01;;;;;;;20.65;12.75;;;;;;;1.38;52.51367;94662.89;;;;
2020/04/03 01:20:30;;;;;;;20.65;12.75;;;;;;;1.38;52.51367;94662.89;;;;
2020/04/03 01:21:43;;;;;;;20.3;10.9;;;;;;;1.31;52.15723;94671.34;;;;
2020/04/03 01:22:51;;;;;;;20.3;10.9;;;;;;;1.31;52.15723;94671.34;;;;
2020/04/03 01:24:07;;;;;;;19.85;12.75;;;;;;;1.32;52.72852;94667.56;;;;
2020/04/03 01:25:30;;;;;;;19.85;12.75;;;;;;;1.32;52.72852;94667.56;;;;
2020/04/03 01:26:37;;;;;;;19.85;12.75;;;;;;;1.32;52.72852;94667.56;;;;
2020/04/03 01:28:20;;;;;;;19.85;12.75;;;;;;;1.32;52.72852;94667.56;;;;
2020/04/03 01:29:33;;;;;;;19.85;12.75;;;;;;;1.32;52.72852;94667.56;;;;
2020/04/03 01:30:41;;;;;;;19.85;12.75;;;;;;;1.32;52.72852;94667.56;;;;
2020/04/03 01:32:03;;;;;;;19.85;12.75;;;;;;;1.32;52.72852;94667.56;;;;
2020/04/03 01:33:32;;;;;;;19.85;12.75;;;;;;;1.32;52.72852;94667.56;;;;
2020/04/03 01:34:40;;;;;;;20.85;12.05;;;;;;;1.18;52.41602;94684.45;;;;
2020/04/03 01:35:48;;;;;;;20.85;12.05;;;;;;;1.18;52.41602;94684.45;;;;
2020/04/03 01:36:57;;;;;;;20.85;12.05;;;;;;;1.18;52.41602;94684.45;;;;
2020/04/03 01:38:06;;;;;;;20.45;14.1;;;;;;;1.24;53.02441;94684.59;;;;
2020/04/03 01:39:13;;;;;;;20.45;14.1;;;;;;;1.24;53.02441;94684.59;;;;
2020/04/03 01:40:56;;;;;;;20.45;14.1;;;;;;;1.24;53.02441;94684.59;;;;
2020/04/03 01:42:06;;;;;;;20.45;14.1;;;;;;;1.24;53.02441;94684.59;;;;
2020/04/03 01:43:36;;;;;;;20.45;14.1;;;;;;;1.24;53.02441;94684.59;;;;
2020/04/03 01:44:46;;;;;;;20.45;14.1;;;;;;;1.24;53.02441;94684.59;;;;
2020/04/03 01:45:47;;;;;;;20.45;14.1;;;;;;;1.24;53.02441;94684.59;;;;
2020/04/03 01:46:55;;;;;;;20.45;14.1;;;;;;;1.24;53.02441;94684.59;;;;
2020/04/03 01:47:59;;;;;;;20.45;14.1;;;;;;;1.24;53.02441;94684.59;;;;
2020/04/03 01:49:06;;;;;;;20.45;14.1;;;;;;;1.24;53.02441;94684.59;;;;
2020/04/03 01:50:16;;;;;;;20.45;14.1;;;;;;;1.24;53.02441;94684.59;;;;
2020/04/03 01:51:21;;;;;;;20.25;13.5;;;;;;;1.49;52.94922;94684.95;;;;
2020/04/03 01:52:27;;;;;;;20.25;13.5;;;;;;;1.49;52.94922;94684.95;;;;
2020/04/03 01:53:42;;;;;;;22.2;14.6;;;;;;;1.61;53.59766;94690.86;;;;
2020/04/03 01:54:43;;;;;;;22.2;14.6;;;;;;;1.61;53.59766;94690.86;;;;
2020/04/03 01:55:45;;;;;;;22.2;14.6;;;;;;;1.61;53.59766;94690.86;;;;
2020/04/03 01:56:52;;;;;;;22.2;14.6;;;;;;;1.61;53.59766;94690.86;;;;
2020/04/03 01:57:52;;;;;;;22.2;14.6;;;;;;;1.61;53.59766;94690.86;;;;
2020/04/03 01:59:00;;;;;;;22.2;14.6;;;;;;;1.61;53.59766;94690.86;;;;
2020/04/03 02:00:00;;;;;;;22.2;14.6;;;;;;;1.61;53.59766;94690.86;;;;
2020/04/03 02:01:39;;;;;;;22.2;14.6;;;;;;;1.61;53.59766;94690.86;;;;
2020/04/03 02:03:20;;;;;;;22.2;14.6;;;;;;;1.61;53.59766;94690.86;;;;
2020/04/03 02:04:27;;;;;;;21.55;12.5;;;;;;;1.43;53.16309;94697.19;;;;
2020/04/03 02:05:33;;;;;;;21.55;12.5;;;;;;;1.43;53.16309;94697.19;;;;
2020/04/03 02:06:59;;;;;;;21.55;12.5;;;;;;;1.43;53.16309;94697.19;;;;
2020/04/03 02:09:06;;;;;;;21.55;12.5;;;;;;;1.43;53.16309;94697.19;;;;
2020/04/03 02:10:54;;;;;;;21.55;12.5;;;;;;;1.43;53.16309;94697.19;;;;
2020/04/03 02:12:05;;;;;;;21.55;12.5;;;;;;;1.43;53.16309;94697.19;;;;
2020/04/03 02:13:35;;;;;;;21.55;12.5;;;;;;;1.43;53.16309;94697.19;;;;
2020/04/03 02:14:54;;;;;;;20.4;11.7;;;;;;;1.13;52.89355;94700.24;;;;
2020/04/03 02:16:15;;;;;;;20.4;11.7;;;;;;;1.13;52.89355;94700.24;;;;
2020/04/03 02:18:08;;;;;;;22.05;15.4;;;;;;;1.12;53.52441;94705.22;;;;
2020/04/03 02:19:18;;;;;;;22.05;15.4;;;;;;;1.12;53.52441;94705.22;;;;
2020/04/03 02:20:24;;;;;;;22.05;15.4;;;;;;;1.12;53.52441;94705.22;;;;
2020/04/03 02:21:31;;;;;;;22.05;15.4;;;;;;;1.12;53.52441;94705.22;;;;
2020/04/03 02:22:34;;;;;;;22.05;15.4;;;;;;;1.12;53.52441;94705.22;;;;
2020/04/03 02:23:46;;;;;;;22.05;15.4;;;;;;;1.12;53.52441;94705.22;;;;
2020/04/03 02:25:03;;;;;;;22.05;15.4;;;;;;;1.12;53.52441;94705.22;;;;
2020/04/03 02:26:34;;;;;;;22.05;15.4;;;;;;;1.12;53.52441;94705.22;;;;
2020/04/03 02:27:44;;;;;;;21.1;12.35;;;;;;;0.89;53.49707;94719.58;;;;
2020/04/03 02:28:54;;;;;;;21.1;12.35;;;;;;;0.89;53.49707;94719.58;;;;
2020/04/03 02:30:00;;;;;;;21.1;12.35;;;;;;;0.89;53.49707;94719.58;;;;
2020/04/03 02:31:27;;;;;;;22.6;13.75;;;;;;;0.9;54.06543;94711.11;;;;
2020/04/03 02:32:31;;;;;;;22.6;13.75;;;;;;;0.9;54.06543;94711.11;;;;
2020/04/03 02:33:32;;;;;;;22.6;13.75;;;;;;;0.9;54.06543;94711.11;;;;
2020/04/03 02:34:39;;;;;;;22.6;13.75;;;;;;;0.9;54.06543;94711.11;;;;
2020/04/03 02:35:48;;;;;;;22.6;13.75;;;;;;;0.9;54.06543;94711.11;;;;
2020/04/03 02:36:49;;;;;;;22.6;13.75;;;;;;;0.9;54.06543;94711.11;;;;
2020/04/03 02:37:51;;;;;;;22.6;13.75;;;;;;;0.9;54.06543;94711.11;;;;
2020/04/03 02:38:52;;;;;;;22.6;13.75;;;;;;;0.9;54.06543;94711.11;;;;
2020/04/03 02:39:59;;;;;;;22.6;13.75;;;;;;;0.9;54.06543;94711.11;;;;
2020/04/03 02:41:36;;;;;;;22.6;13.75;;;;;;;0.9;54.06543;94711.11;;;;
2020/04/03 02:42:39;;;;;;;22.6;13.75;;;;;;;0.9;54.06543;94711.11;;;;
2020/04/03 02:43:44;;;;;;;22.6;13.75;;;;;;;0.9;54.06543;94711.11;;;;
2020/04/03 02:44:51;;;;;;;21.25;13.3;;;;;;;0.92;53.88867;94717.97;;;;
2020/04/03 02:45:56;;;;;;;21.25;13.3;;;;;;;0.92;53.88867;94717.97;;;;
2020/04/03 02:47:05;;;;;;;21.25;13.3;;;;;;;0.92;53.88867;94717.97;;;;
2020/04/03 02:48:10;;;;;;;21.25;13.3;;;;;;;0.92;53.88867;94717.97;;;;
2020/04/03 02:49:15;;;;;;;21.25;13.3;;;;;;;0.92;53.88867;94717.97;;;;
2020/04/03 02:50:18;;;;;;;21.25;13.3;;;;;;;0.92;53.88867;94717.97;;;;
2020/04/03 02:51:32;;;;;;;21.25;13.3;;;;;;;0.92;53.88867;94717.97;;;;
2020/04/03 02:52:39;;;;;;;21.25;13.3;;;;;;;0.92;53.88867;94717.97;;;;
2020/04/03 02:53:46;;;;;;;21.25;13.3;;;;;;;0.92;53.88867;94717.97;;;;
2020/04/03 02:54:51;;;;;;;18.6;11.1;;;;;;;0.88;53.47363;94722.43;;;;
2020/04/03 02:55:55;;;;;;;18.6;11.1;;;;;;;0.88;53.47363;94722.43;;;;
2020/04/03 02:56:56;;;;;;;18.6;11.1;;;;;;;0.88;53.47363;94722.43;;;;
2020/04/03 02:57:57;;;;;;;21.75;13.35;;;;;;;0.92;53.91992;94725.94;;;;
2020/04/03 02:58:57;;;;;;;21.75;13.35;;;;;;;0.92;53.91992;94725.94;;;;
2020/04/03 02:59:58;;;;;;;21.75;13.35;;;;;;;0.92;53.91992;94725.94;;;;
2020/04/03 03:01:26;;;;;;;21.75;13.35;;;;;;;0.92;53.91992;94725.94;;;;
2020/04/03 03:02:33;;;;;;;21.75;13.35;;;;;;;0.92;53.91992;94725.94;;;;
2020/04/03 03:03:33;;;;;;;21.75;13.35;;;;;;;0.92;53.91992;94725.94;;;;
2020/04/03 03:04:34;;;;;;;21.75;13.35;;;;;;;0.92;53.91992;94725.94;;;;
2020/04/03 03:05:40;;;;;;;21.75;13.35;;;;;;;0.92;53.91992;94725.94;;;;
2020/04/03 03:06:42;;;;;;;21.75;13.35;;;;;;;0.92;53.91992;94725.94;;;;
2020/04/03 03:07:44;;;;;;;18.35;10.8;;;;;;;0.86;53.65039;94725.36;;;;
2020/04/03 03:08:46;;;;;;;18.35;10.8;;;;;;;0.86;53.65039;94725.36;;;;
2020/04/03 03:09:52;;;;;;;18.35;10.8;;;;;;;0.86;53.65039;94725.36;;;;
2020/04/03 03:11:09;;;;;;;18.35;10.8;;;;;;;0.86;53.65039;94725.36;;;;
2020/04/03 03:12:11;;;;;;;18.35;10.8;;;;;;;0.86;53.65039;94725.36;;;;
2020/04/03 03:13:14;;;;;;;18.35;10.8;;;;;;;0.86;53.65039;94725.36;;;;
2020/04/03 03:14:20;;;;;;;18.35;10.8;;;;;;;0.86;53.65039;94725.36;;;;
2020/04/03 03:15:21;;;;;;;18.35;10.8;;;;;;;0.86;53.65039;94725.36;;;;
2020/04/03 03:16:30;;;;;;;18.35;10.8;;;;;;;0.86;53.65039;94725.36;;;;
2020/04/03 03:17:34;;;;;;;18.35;10.8;;;;;;;0.86;53.65039;94725.36;;;;
2020/04/03 03:18:34;;;;;;;19;11.35;;;;;;;0.86;53.31348;94734.16;;;;
2020/04/03 03:19:37;;;;;;;19;11.35;;;;;;;0.86;53.31348;94734.16;;;;
2020/04/03 03:20:37;;;;;;;19;11.35;;;;;;;0.86;53.31348;94734.16;;;;
2020/04/03 03:21:38;;;;;;;19;11.35;;;;;;;0.86;53.31348;94734.16;;;;
2020/04/03 03:22:42;;;;;;;19;11.35;;;;;;;0.86;53.31348;94734.16;;;;
2020/04/03 03:23:44;;;;;;;19;11.35;;;;;;;0.86;53.31348;94734.16;;;;
2020/04/03 03:24:44;;;;;;;19;11.35;;;;;;;0.86;53.31348;94734.16;;;;
2020/04/03 03:25:45;;;;;;;19;11.35;;;;;;;0.86;53.31348;94734.16;;;;
2020/04/03 03:26:46;;;;;;;19;11.35;;;;;;;0.86;53.31348;94734.16;;;;
2020/04/03 03:27:50;;;;;;;19;11.35;;;;;;;0.86;53.31348;94734.16;;;;
2020/04/03 03:28:52;;;;;;;18.25;10.85;;;;;;;0.78;53.0498;94732.53;;;;
2020/04/03 03:29:54;;;;;;;18.25;10.85;;;;;;;0.78;53.0498;94732.53;;;;
2020/04/03 03:30:54;;;;;;;18.25;10.85;;;;;;;0.78;53.0498;94732.53;;;;
2020/04/03 03:31:54;;;;;;;21.05;14.05;;;;;;;0.82;53.55078;94742.19;;;;
2020/04/03 03:32:56;;;;;;;21.05;14.05;;;;;;;0.82;53.55078;94742.19;;;;
2020/04/03 03:34:00;;;;;;;21.05;14.05;;;;;;;0.82;53.55078;94742.19;;;;
2020/04/03 03:35:01;;;;;;;21.05;14.05;;;;;;;0.82;53.55078;94742.19;;;;
2020/04/03 03:36:08;;;;;;;21.05;14.05;;;;;;;0.82;53.55078;94742.19;;;;
2020/04/03 03:37:14;;;;;;;21.05;14.05;;;;;;;0.82;53.55078;94742.19;;;;
2020/04/03 03:38:14;;;;;;;21.05;14.05;;;;;;;0.82;53.55078;94742.19;;;;
2020/04/03 03:39:20;;;;;;;21.05;14.05;;;;;;;0.82;53.55078;94742.19;;;;
2020/04/03 03:40:37;;;;;;;21.05;14.05;;;;;;;0.82;53.55078;94742.19;;;;
2020/04/03 03:41:38;;;;;;;21.05;14.05;;;;;;;0.82;53.55078;94742.19;;;;
2020/04/03 03:42:38;;;;;;;18.35;11.55;;;;;;;0.75;53.34082;94747.53;;;;
2020/04/03 03:43:39;;;;;;;18.35;11.55;;;;;;;0.75;53.34082;94747.53;;;;
2020/04/03 03:44:39;;;;;;;18.35;11.55;;;;;;;0.75;53.34082;94747.53;;;;
2020/04/03 03:45:40;;;;;;;18.35;11.55;;;;;;;0.75;53.34082;94747.53;;;;
2020/04/03 03:46:47;;;;;;;18.35;11.55;;;;;;;0.75;53.34082;94747.53;;;;
2020/04/03 03:47:49;;;;;;;18.35;11.55;;;;;;;0.75;53.34082;94747.53;;;;
2020/04/03 03:48:49;;;;;;;18.35;11.55;;;;;;;0.75;53.34082;94747.53;;;;
2020/04/03 03:49:50;;;;;;;18.35;11.55;;;;;;;0.75;53.34082;94747.53;;;;
2020/04/03 03:50:51;;;;;;;18.35;11.55;;;;;;;0.75;53.34082;94747.53;;;;
2020/04/03 03:51:51;;;;;;;18.35;11.55;;;;;;;0.75;53.34082;94747.53;;;;
2020/04/03 03:52:52;;;;;;;19.4;11.15;;;;;;;0.75;53.15137;94755.92;;;;
2020/04/03 03:53:52;;;;;;;19.4;11.15;;;;;;;0.75;53.15137;94755.92;;;;
2020/04/03 03:54:53;;;;;;;19.4;11.15;;;;;;;0.75;53.15137;94755.92;;;;
2020/04/03 03:55:53;;;;;;;19.4;11.15;;;;;;;0.75;53.15137;94755.92;;;;
2020/04/03 03:56:54;;;;;;;19.4;11.15;;;;;;;0.75;53.15137;94755.92;;;;
2020/04/03 03:57:54;;;;;;;19.4;11.15;;;;;;;0.75;53.15137;94755.92;;;;
2020/04/03 03:58:55;;;;;;;19.4;11.15;;;;;;;0.75;53.15137;94755.92;;;;
2020/04/03 03:59:55;;;;;;;19.4;11.15;;;;;;;0.75;53.15137;94755.92;;;;
2020/04/03 04:00:56;;;;;;;19.4;11.15;;;;;;;0.75;53.15137;94755.92;;;;
2020/04/03 04:02:00;;;;;;;19.4;11.15;;;;;;;0.75;53.15137;94755.92;;;;
2020/04/03 04:03:01;;;;;;;19.4;11.15;;;;;;;0.75;53.15137;94755.92;;;;
2020/04/03 04:04:03;;;;;;;19.4;11.15;;;;;;;0.75;53.15137;94755.92;;;;
2020/04/03 04:05:12;;;;;;;19.4;11.15;;;;;;;0.75;53.15137;94755.92;;;;
2020/04/03 04:06:27;;;;;;;20.2;12.45;;;;;;;0.79;53.30469;94765.16;;;;
2020/04/03 04:07:29;;;;;;;20.2;12.45;;;;;;;0.79;53.30469;94765.16;;;;
2020/04/03 04:08:30;;;;;;;20.2;12.45;;;;;;;0.79;53.30469;94765.16;;;;
2020/04/03 04:09:32;;;;;;;20.2;12.45;;;;;;;0.79;53.30469;94765.16;;;;
2020/04/03 04:10:37;;;;;;;20.2;12.45;;;;;;;0.79;53.30469;94765.16;;;;
2020/04/03 04:11:40;;;;;;;20.2;12.45;;;;;;;0.79;53.30469;94765.16;;;;
2020/04/03 04:12:41;;;;;;;20.2;12.45;;;;;;;0.79;53.30469;94765.16;;;;
2020/04/03 04:13:41;;;;;;;20.2;12.45;;;;;;;0.79;53.30469;94765.16;;;;
2020/04/03 04:14:43;;;;;;;20.2;12.45;;;;;;;0.79;53.30469;94765.16;;;;
2020/04/03 04:15:44;;;;;;;20.2;12.45;;;;;;;0.79;53.30469;94765.16;;;;
2020/04/03 04:16:44;;;;;;;20.2;12.45;;;;;;;0.79;53.30469;94765.16;;;;
2020/04/03 04:17:45;;;;;;;19.15;11.55;;;;;;;0.77;53.13281;94777.4;;;;
2020/04/03 04:18:46;;;;;;;19.15;11.55;;;;;;;0.77;53.13281;94777.4;;;;
2020/04/03 04:19:46;;;;;;;19.15;11.55;;;;;;;0.77;53.13281;94777.4;;;;
2020/04/03 04:20:47;;;;;;;19.15;11.55;;;;;;;0.77;53.13281;94777.4;;;;
2020/04/03 04:21:47;;;;;;;19.15;11.55;;;;;;;0.77;53.13281;94777.4;;;;
2020/04/03 04:22:48;;;;;;;19.15;11.55;;;;;;;0.77;53.13281;94777.4;;;;
2020/04/03 04:23:49;;;;;;;19.15;11.55;;;;;;;0.77;53.13281;94777.4;;;;
2020/04/03 04:24:50;;;;;;;19.15;11.55;;;;;;;0.77;53.13281;94777.4;;;;
2020/04/03 04:25:51;;;;;;;19.15;11.55;;;;;;;0.77;53.13281;94777.4;;;;
2020/04/03 04:26:51;;;;;;;19.15;11.55;;;;;;;0.77;53.13281;94777.4;;;;
2020/04/03 04:27:52;;;;;;;18.75;11.85;;;;;;;0.89;52.82227;94790.08;;;;
2020/04/03 04:28:56;;;;;;;18.75;11.85;;;;;;;0.89;52.82227;94790.08;;;;
2020/04/03 04:29:56;;;;;;;18.75;11.85;;;;;;;0.89;52.82227;94790.08;;;;
2020/04/03 04:30:56;;;;;;;18.75;11.85;;;;;;;0.89;52.82227;94790.08;;;;
2020/04/03 04:32:03;;;;;;;18.75;11.85;;;;;;;0.89;52.82227;94790.08;;;;
2020/04/03 04:33:03;;;;;;;18.75;11.85;;;;;;;0.89;52.82227;94790.08;;;;
2020/04/03 04:34:08;;;;;;;18.75;11.85;;;;;;;0.89;52.82227;94790.08;;;;
2020/04/03 04:35:09;;;;;;;18.75;11.85;;;;;;;0.89;52.82227;94790.08;;;;
2020/04/03 04:36:09;;;;;;;18.75;11.85;;;;;;;0.89;52.82227;94790.08;;;;
2020/04/03 04:37:13;;;;;;;18.75;11.85;;;;;;;0.89;52.82227;94790.08;;;;
2020/04/03 04:38:14;;;;;;;18.75;11.8;;;;;;;0.84;52.60547;94800.37;;;;
2020/04/03 04:39:15;;;;;;;18.75;11.8;;;;;;;0.84;52.60547;94800.37;;;;
2020/04/03 04:40:30;;;;;;;18.75;11.8;;;;;;;0.84;52.60547;94800.37;;;;
2020/04/03 04:41:35;;;;;;;18.75;11.8;;;;;;;0.84;52.60547;94800.37;;;;
2020/04/03 04:42:35;;;;;;;18.75;11.8;;;;;;;0.84;52.60547;94800.37;;;;
2020/04/03 04:43:36;;;;;;;18.75;11.8;;;;;;;0.84;52.60547;94800.37;;;;
2020/04/03 04:45:09;;;;;;;18.75;11.8;;;;;;;0.84;52.60547;94800.37;;;;
2020/04/03 04:46:10;;;;;;;18.75;11.8;;;;;;;0.84;52.60547;94800.37;;;;
2020/04/03 04:47:11;;;;;;;18.75;11.8;;;;;;;0.84;52.60547;94800.37;;;;
2020/04/03 04:48:12;;;;;;;18.75;11.8;;;;;;;0.84;52.60547;94800.37;;;;
2020/04/03 04:49:19;;;;;;;20.95;11.85;;;;;;;0.78;52.48242;94815.31;;;;
2020/04/03 04:50:23;;;;;;;20.95;11.85;;;;;;;0.78;52.48242;94815.31;;;;
2020/04/03 04:51:24;;;;;;;20.95;11.85;;;;;;;0.78;52.48242;94815.31;;;;
2020/04/03 04:52:27;;;;;;;20.95;11.85;;;;;;;0.78;52.48242;94815.31;;;;
2020/04/03 04:53:27;;;;;;;20.95;11.85;;;;;;;0.78;52.48242;94815.31;;;;
2020/04/03 04:54:29;;;;;;;20.95;11.85;;;;;;;0.78;52.48242;94815.31;;;;
2020/04/03 04:55:30;;;;;;;20.95;11.85;;;;;;;0.78;52.48242;94815.31;;;;
2020/04/03 04:56:30;;;;;;;20.95;11.85;;;;;;;0.78;52.48242;94815.31;;;;
2020/04/03 04:57:31;;;;;;;20.95;11.85;;;;;;;0.78;52.48242;94815.31;;;;
2020/04/03 04:58:32;;;;;;;20.95;11.85;;;;;;;0.78;52.48242;94815.31;;;;
2020/04/03 04:59:33;;;;;;;20.3;12.15;;;;;;;0.63;52.47461;94834.05;;;;
2020/04/03 05:00:33;;;;;;;20.3;12.15;;;;;;;0.63;52.47461;94834.05;;;;
2020/04/03 05:01:43;;;;;;;20.3;12.15;;;;;;;0.63;52.47461;94834.05;;;;
2020/04/03 05:02:44;;;;;;;20.3;12.15;;;;;;;0.63;52.47461;94834.05;;;;
2020/04/03 05:03:44;;;;;;;20.3;12.15;;;;;;;0.63;52.47461;94834.05;;;;
2020/04/03 05:04:47;;;;;;;20.3;12.15;;;;;;;0.63;52.47461;94834.05;;;;
2020/04/03 05:05:48;;;;;;;20.3;12.15;;;;;;;0.63;52.47461;94834.05;;;;
2020/04/03 05:06:48;;;;;;;20.3;12.15;;;;;;;0.63;52.47461;94834.05;;;;
2020/04/03 05:07:48;;;;;;;20.3;12.15;;;;;;;0.63;52.47461;94834.05;;;;
2020/04/03 05:08:49;;;;;;;20.3;12.15;;;;;;;0.63;52.47461;94834.05;;;;
2020/04/03 05:09:50;;;;;;;21.85;11.9;;;;;;;0.77;52.43848;94843.81;;;;
2020/04/03 05:10:50;;;;;;;21.85;11.9;;;;;;;0.77;52.43848;94843.81;;;;
2020/04/03 05:11:51;;;;;;;21.85;11.9;;;;;;;0.77;52.43848;94843.81;;;;
2020/04/03 05:12:51;;;;;;;21.85;11.9;;;;;;;0.77;52.43848;94843.81;;;;
2020/04/03 05:13:52;;;;;;;21.85;11.9;;;;;;;0.77;52.43848;94843.81;;;;
2020/04/03 05:14:52;;;;;;;21.85;11.9;;;;;;;0.77;52.43848;94843.81;;;;
2020/04/03 05:15:53;;;;;;;21.85;11.9;;;;;;;0.77;52.43848;94843.81;;;;
2020/04/03 05:16:54;;;;;;;21.85;11.9;;;;;;;0.77;52.43848;94843.81;;;;
2020/04/03 05:17:55;;;;;;;21.85;11.9;;;;;;;0.77;52.43848;94843.81;;;;
2020/04/03 05:18:55;;;;;;;21.85;11.9;;;;;;;0.77;52.43848;94843.81;;;;
2020/04/03 05:19:56;;;;;;;21.85;11.9;;;;;;;0.77;52.43848;94843.81;;;;
2020/04/03 05:20:56;;;;;;;19.1;11.65;;;;;;;1.08;52.20313;94864.28;;;;
2020/04/03 05:21:57;;;;;;;19.1;11.65;;;;;;;1.08;52.20313;94864.28;;;;
2020/04/03 05:22:58;;;;;;;19.1;11.65;;;;;;;1.08;52.20313;94864.28;;;;
2020/04/03 05:24:05;;;;;;;19.1;11.65;;;;;;;1.08;52.20313;94864.28;;;;
2020/04/03 05:25:06;;;;;;;19.1;11.65;;;;;;;1.08;52.20313;94864.28;;;;
2020/04/03 05:26:09;;;;;;;19.1;11.65;;;;;;;1.08;52.20313;94864.28;;;;
2020/04/03 05:27:10;;;;;;;19.1;11.65;;;;;;;1.08;52.20313;94864.28;;;;
2020/04/03 05:28:10;;;;;;;19.1;11.65;;;;;;;1.08;52.20313;94864.28;;;;
2020/04/03 05:29:11;;;;;;;19.1;11.65;;;;;;;1.08;52.20313;94864.28;;;;
2020/04/03 05:30:12;;;;;;;19.1;11.65;;;;;;;1.08;52.20313;94864.28;;;;
2020/04/03 05:31:15;;;;;;;23.1;12.2;;;;;;;1.63;52.00684;94879.97;;;;
2020/04/03 05:32:15;;;;;;;23.1;12.2;;;;;;;1.63;52.00684;94879.97;;;;
2020/04/03 05:33:16;;;;;;;23.1;12.2;;;;;;;1.63;52.00684;94879.97;;;;
2020/04/03 05:34:18;;;;;;;23.1;12.2;;;;;;;1.63;52.00684;94879.97;;;;
2020/04/03 05:35:18;;;;;;;23.1;12.2;;;;;;;1.63;52.00684;94879.97;;;;
2020/04/03 05:36:19;;;;;;;23.1;12.2;;;;;;;1.63;52.00684;94879.97;;;;
2020/04/03 05:37:19;;;;;;;23.1;12.2;;;;;;;1.63;52.00684;94879.97;;;;
2020/04/03 05:38:20;;;;;;;23.1;12.2;;;;;;;1.63;52.00684;94879.97;;;;
2020/04/03 05:39:30;;;;;;;23.1;12.2;;;;;;;1.63;52.00684;94879.97;;;;
2020/04/03 05:40:33;;;;;;;23.1;12.2;;;;;;;1.63;52.00684;94879.97;;;;
2020/04/03 05:41:36;;;;;;;25.75;13.45;;;;;;;2.21;51.72852;94897.85;;;;
2020/04/03 05:42:37;;;;;;;25.75;13.45;;;;;;;2.21;51.72852;94897.85;;;;
2020/04/03 05:43:37;;;;;;;25.75;13.45;;;;;;;2.21;51.72852;94897.85;;;;
2020/04/03 05:44:38;;;;;;;25.75;13.45;;;;;;;2.21;51.72852;94897.85;;;;
2020/04/03 05:45:39;;;;;;;25.75;13.45;;;;;;;2.21;51.72852;94897.85;;;;
2020/04/03 05:46:41;;;;;;;25.75;13.45;;;;;;;2.21;51.72852;94897.85;;;;
2020/04/03 05:47:41;;;;;;;25.75;13.45;;;;;;;2.21;51.72852;94897.85;;;;
2020/04/03 05:48:43;;;;;;;25.75;13.45;;;;;;;2.21;51.72852;94897.85;;;;
2020/04/03 05:49:43;;;;;;;25.75;13.45;;;;;;;2.21;51.72852;94897.85;;;;
2020/04/03 05:50:44;;;;;;;25.75;13.45;;;;;;;2.21;51.72852;94897.85;;;;
2020/04/03 05:51:48;;;;;;;25.75;13.45;;;;;;;2.21;51.72852;94897.85;;;;
2020/04/03 05:52:48;;;;;;;29.15;14.8;;;;;;;2.89;51.54688;94899.66;;;;
2020/04/03 05:53:49;;;;;;;29.15;14.8;;;;;;;2.89;51.54688;94899.66;;;;
2020/04/03 05:54:50;;;;;;;29.15;14.8;;;;;;;2.89;51.54688;94899.66;;;;
2020/04/03 05:55:50;;;;;;;29.15;14.8;;;;;;;2.89;51.54688;94899.66;;;;
2020/04/03 05:56:51;;;;;;;29.15;14.8;;;;;;;2.89;51.54688;94899.66;;;;
2020/04/03 05:57:52;;;;;;;29.15;14.8;;;;;;;2.89;51.54688;94899.66;;;;
2020/04/03 05:58:52;;;;;;;29.15;14.8;;;;;;;2.89;51.54688;94899.66;;;;
2020/04/03 05:59:53;;;;;;;29.15;14.8;;;;;;;2.89;51.54688;94899.66;;;;
2020/04/03 06:00:53;;;;;;;29.15;14.8;;;;;;;2.89;51.54688;94899.66;;;;
2020/04/03 06:01:54;;;;;;;29.15;14.8;;;;;;;2.89;51.54688;94899.66;;;;
2020/04/03 06:02:54;;;;;;;22.45;13.85;;;;;;;3.26;51.23047;94901.05;;;;
2020/04/03 06:03:58;;;;;;;22.45;13.85;;;;;;;3.26;51.23047;94901.05;;;;
2020/04/03 06:04:59;;;;;;;22.45;13.85;;;;;;;3.26;51.23047;94901.05;;;;
2020/04/03 06:05:59;;;;;;;27.5;15.95;;;;;;;3.37;51.8584;94909.77;;;;
2020/04/03 06:07:05;;;;;;;27.5;15.95;;;;;;;3.37;51.8584;94909.77;;;;
2020/04/03 06:08:05;;;;;;;27.5;15.95;;;;;;;3.37;51.8584;94909.77;;;;
2020/04/03 06:09:14;;;;;;;27.5;15.95;;;;;;;3.37;51.8584;94909.77;;;;
2020/04/03 06:10:27;;;;;;;27.5;15.95;;;;;;;3.37;51.8584;94909.77;;;;
2020/04/03 06:11:47;;;;;;;27.5;15.95;;;;;;;3.37;51.8584;94909.77;;;;
2020/04/03 06:12:51;;;;;;;27.5;15.95;;;;;;;3.37;51.8584;94909.77;;;;
2020/04/03 06:13:51;;;;;;;27.5;15.95;;;;;;;3.37;51.8584;94909.77;;;;
2020/04/03 06:14:54;;;;;;;27.5;15.95;;;;;;;3.37;51.8584;94909.77;;;;
2020/04/03 06:15:54;;;;;;;27.5;15.95;;;;;;;3.37;51.8584;94909.77;;;;
2020/04/03 06:16:55;;;;;;;29.5;14.9;;;;;;;3.55;51.58398;94917.11;;;;
2020/04/03 06:17:56;;;;;;;29.5;14.9;;;;;;;3.55;51.58398;94917.11;;;;
2020/04/03 06:18:56;;;;;;;27.3;15.8;;;;;;;3.69;52.08789;94924.53;;;;
2020/04/03 06:19:57;;;;;;;27.3;15.8;;;;;;;3.69;52.08789;94924.53;;;;
2020/04/03 06:20:58;;;;;;;27.3;15.8;;;;;;;3.69;52.08789;94924.53;;;;
2020/04/03 06:21:58;;;;;;;27.1;16.2;;;;;;;3.91;52.43359;94923.85;;;;
2020/04/03 06:23:01;;;;;;;27.1;16.2;;;;;;;3.91;52.43359;94923.85;;;;
2020/04/03 06:24:04;;;;;;;20.4;14.85;;;;;;;4.13;52.59863;94925.31;;;;
2020/04/03 06:25:06;;;;;;;20.4;14.85;;;;;;;4.13;52.59863;94925.31;;;;
2020/04/03 06:26:07;;;;;;;20.4;14.85;;;;;;;4.13;52.59863;94925.31;;;;
2020/04/03 06:27:12;;;;;;;20.4;14.85;;;;;;;4.13;52.59863;94925.31;;;;
2020/04/03 06:28:19;;;;;;;20.4;14.85;;;;;;;4.13;52.59863;94925.31;;;;
2020/04/03 06:29:25;;;;;;;20.4;14.85;;;;;;;4.13;52.59863;94925.31;;;;
2020/04/03 06:30:30;;;;;;;20.4;14.85;;;;;;;4.13;52.59863;94925.31;;;;
2020/04/03 06:31:31;;;;;;;20.4;14.85;;;;;;;4.13;52.59863;94925.31;;;;
2020/04/03 06:32:35;;;;;;;20.4;14.85;;;;;;;4.13;52.59863;94925.31;;;;
2020/04/03 06:33:36;;;;;;;20.4;14.85;;;;;;;4.13;52.59863;94925.31;;;;
2020/04/03 06:34:36;;;;;;;26.8;14.95;;;;;;;4.95;51.11426;94929.61;;;;
2020/04/03 06:35:38;;;;;;;26.8;14.95;;;;;;;4.95;51.11426;94929.61;;;;
2020/04/03 06:36:38;;;;;;;26.8;14.95;;;;;;;4.95;51.11426;94929.61;;;;
2020/04/03 06:37:39;;;;;;;24;15.6;;;;;;;5.31;51.10449;94932.17;;;;
2020/04/03 06:38:42;;;;;;;24;15.6;;;;;;;5.31;51.10449;94932.17;;;;
2020/04/03 06:39:43;;;;;;;24;15.6;;;;;;;5.31;51.10449;94932.17;;;;
2020/04/03 06:40:52;;;;;;;26.5;16.7;;;;;;;5.74;50.81348;94931.47;;;;